sensor_id;sensor_type;location;lat;lon;timestamp;temperature;humidity
19365;DHT22;9818;48.382;10.850;2022-08-16T00:00:54;18.10;99.90
19365;DHT22;9818;48.382;10.850;2022-08-16T00:03:26;18.20;99.90
19365;DHT22;9818;48.382;10.850;2022-08-16T00:06:01;18.10;99.90
19365;DHT22;9818;48.382;10.850;2022-08-16T00:08:34;18.10;99.90
19365;DHT22;9818;48.382;10.850;2022-08-16T00:11:06;18.00;99.90
19365;DHT22;9818;48.382;10.850;2022-08-16T00:13:39;18.00;99.90
19365;DHT22;9818;48.382;10.850;2022-08-16T00:16:11;17.90;99.90
19365;DHT22;9818;48.382;10.850;2022-08-16T00:18:45;17.90;99.90
19365;DHT22;9818;48.382;10.850;2022-08-16T00:21:21;17.90;99.90
19365;DHT22;9818;48.382;10.850;2022-08-16T00:23:56;17.90;99.90
19365;DHT22;9818;48.382;10.850;2022-08-16T00:26:28;17.80;99.90
19365;DHT22;9818;48.382;10.850;2022-08-16T00:29:00;17.80;99.90
19365;DHT22;9818;48.382;10.850;2022-08-16T00:31:33;17.70;99.90
19365;DHT22;9818;48.382;10.850;2022-08-16T00:34:13;17.70;99.90
19365;DHT22;9818;48.382;10.850;2022-08-16T00:36:49;17.60;99.90
19365;DHT22;9818;48.382;10.850;2022-08-16T00:39:21;17.50;99.90
19365;DHT22;9818;48.382;10.850;2022-08-16T00:41:55;17.50;99.90
19365;DHT22;9818;48.382;10.850;2022-08-16T00:44:37;17.50;99.90
19365;DHT22;9818;48.382;10.850;2022-08-16T00:47:16;17.40;99.90
19365;DHT22;9818;48.382;10.850;2022-08-16T00:49:52;17.30;99.90
19365;DHT22;9818;48.382;10.850;2022-08-16T00:52:38;17.30;99.90
19365;DHT22;9818;48.382;10.850;2022-08-16T00:55:22;17.20;99.90
19365;DHT22;9818;48.382;10.850;2022-08-16T00:58:02;17.20;99.90
19365;DHT22;9818;48.382;10.850;2022-08-16T01:00:46;17.10;99.90
19365;DHT22;9818;48.382;10.850;2022-08-16T01:03:25;17.00;99.90
19365;DHT22;9818;48.382;10.850;2022-08-16T01:06:00;17.00;99.90
19365;DHT22;9818;48.382;10.850;2022-08-16T01:20:40;16.80;99.90
19365;DHT22;9818;48.382;10.850;2022-08-16T01:23:12;16.70;99.90
19365;DHT22;9818;48.382;10.850;2022-08-16T01:25:44;16.60;99.90
19365;DHT22;9818;48.382;10.850;2022-08-16T01:28:15;16.60;99.90
19365;DHT22;9818;48.382;10.850;2022-08-16T01:30:46;16.60;99.90
19365;DHT22;9818;48.382;10.850;2022-08-16T01:33:16;16.50;99.90
19365;DHT22;9818;48.382;10.850;2022-08-16T01:35:46;16.50;99.90
19365;DHT22;9818;48.382;10.850;2022-08-16T01:38:17;16.50;99.90
19365;DHT22;9818;48.382;10.850;2022-08-16T01:40:49;16.40;99.90
19365;DHT22;9818;48.382;10.850;2022-08-16T01:43:19;16.40;99.90
19365;DHT22;9818;48.382;10.850;2022-08-16T01:45:48;16.40;99.90
19365;DHT22;9818;48.382;10.850;2022-08-16T01:48:16;16.40;99.90
19365;DHT22;9818;48.382;10.850;2022-08-16T01:50:45;16.40;99.90
19365;DHT22;9818;48.382;10.850;2022-08-16T01:53:13;16.40;99.90
19365;DHT22;9818;48.382;10.850;2022-08-16T01:55:41;16.40;99.90
19365;DHT22;9818;48.382;10.850;2022-08-16T01:58:13;16.40;99.90
19365;DHT22;9818;48.382;10.850;2022-08-16T02:00:42;16.30;99.90
19365;DHT22;9818;48.382;10.850;2022-08-16T02:03:10;16.20;99.90
19365;DHT22;9818;48.382;10.850;2022-08-16T02:05:39;16.30;99.90
19365;DHT22;9818;48.382;10.850;2022-08-16T02:08:07;16.20;99.90
19365;DHT22;9818;48.382;10.850;2022-08-16T02:10:36;16.30;99.90
19365;DHT22;9818;48.382;10.850;2022-08-16T02:13:05;16.30;99.90
19365;DHT22;9818;48.382;10.850;2022-08-16T02:15:37;16.30;99.90
19365;DHT22;9818;48.382;10.850;2022-08-16T02:18:06;16.40;99.90
19365;DHT22;9818;48.382;10.850;2022-08-16T02:20:35;16.40;99.90
19365;DHT22;9818;48.382;10.850;2022-08-16T02:23:04;16.30;99.90
19365;DHT22;9818;48.382;10.850;2022-08-16T02:25:34;16.30;99.90
19365;DHT22;9818;48.382;10.850;2022-08-16T02:28:02;16.20;99.90
19365;DHT22;9818;48.382;10.850;2022-08-16T02:30:31;16.10;99.90
19365;DHT22;9818;48.382;10.850;2022-08-16T02:33:02;16.10;99.90
19365;DHT22;9818;48.382;10.850;2022-08-16T02:35:31;16.10;99.90
19365;DHT22;9818;48.382;10.850;2022-08-16T02:38:00;16.10;99.90
19365;DHT22;9818;48.382;10.850;2022-08-16T02:40:29;16.00;99.90
19365;DHT22;9818;48.382;10.850;2022-08-16T02:42:57;15.90;99.90
19365;DHT22;9818;48.382;10.850;2022-08-16T02:45:26;15.90;99.90
19365;DHT22;9818;48.382;10.850;2022-08-16T02:47:54;15.90;99.90
19365;DHT22;9818;48.382;10.850;2022-08-16T02:50:26;15.80;99.90
19365;DHT22;9818;48.382;10.850;2022-08-16T02:52:54;15.80;99.90
19365;DHT22;9818;48.382;10.850;2022-08-16T02:55:23;15.70;99.90
19365;DHT22;9818;48.382;10.850;2022-08-16T02:57:51;15.80;99.90
19365;DHT22;9818;48.382;10.850;2022-08-16T03:00:20;15.70;99.90
19365;DHT22;9818;48.382;10.850;2022-08-16T03:02:48;15.70;99.90
19365;DHT22;9818;48.382;10.850;2022-08-16T03:05:16;15.60;99.90
19365;DHT22;9818;48.382;10.850;2022-08-16T03:07:48;15.60;99.90
19365;DHT22;9818;48.382;10.850;2022-08-16T03:10:16;15.60;99.90
19365;DHT22;9818;48.382;10.850;2022-08-16T03:12:45;15.60;99.90
19365;DHT22;9818;48.382;10.850;2022-08-16T03:15:14;15.50;99.90
19365;DHT22;9818;48.382;10.850;2022-08-16T03:17:43;15.50;99.90
19365;DHT22;9818;48.382;10.850;2022-08-16T03:20:13;15.40;99.90
19365;DHT22;9818;48.382;10.850;2022-08-16T03:22:42;15.40;99.90
19365;DHT22;9818;48.382;10.850;2022-08-16T03:25:14;15.40;99.90
19365;DHT22;9818;48.382;10.850;2022-08-16T03:27:43;15.40;99.90
19365;DHT22;9818;48.382;10.850;2022-08-16T03:30:12;15.30;99.90
19365;DHT22;9818;48.382;10.850;2022-08-16T03:32:41;15.30;99.90
19365;DHT22;9818;48.382;10.850;2022-08-16T03:35:10;15.30;99.90
19365;DHT22;9818;48.382;10.850;2022-08-16T03:37:38;15.30;99.90
19365;DHT22;9818;48.382;10.850;2022-08-16T03:40:10;15.20;99.90
19365;DHT22;9818;48.382;10.850;2022-08-16T03:42:41;15.20;99.90
19365;DHT22;9818;48.382;10.850;2022-08-16T03:45:10;15.20;99.90
19365;DHT22;9818;48.382;10.850;2022-08-16T03:47:39;15.30;99.90
19365;DHT22;9818;48.382;10.850;2022-08-16T03:50:07;15.30;99.90
19365;DHT22;9818;48.382;10.850;2022-08-16T03:52:37;15.30;99.90
19365;DHT22;9818;48.382;10.850;2022-08-16T03:55:06;15.20;99.90
19365;DHT22;9818;48.382;10.850;2022-08-16T03:57:36;15.10;99.90
19365;DHT22;9818;48.382;10.850;2022-08-16T04:00:09;15.10;99.90
19365;DHT22;9818;48.382;10.850;2022-08-16T04:02:40;15.00;99.90
19365;DHT22;9818;48.382;10.850;2022-08-16T04:05:09;15.00;99.90
19365;DHT22;9818;48.382;10.850;2022-08-16T04:07:38;15.00;99.90
19365;DHT22;9818;48.382;10.850;2022-08-16T04:10:09;15.00;99.90
19365;DHT22;9818;48.382;10.850;2022-08-16T04:12:38;15.00;99.90
19365;DHT22;9818;48.382;10.850;2022-08-16T04:15:11;15.00;99.90
19365;DHT22;9818;48.382;10.850;2022-08-16T04:17:40;15.00;99.90
19365;DHT22;9818;48.382;10.850;2022-08-16T04:20:10;15.00;99.90
19365;DHT22;9818;48.382;10.850;2022-08-16T04:22:39;15.10;99.90
19365;DHT22;9818;48.382;10.850;2022-08-16T04:25:08;15.20;99.90
19365;DHT22;9818;48.382;10.850;2022-08-16T04:27:37;15.20;99.90
19365;DHT22;9818;48.382;10.850;2022-08-16T04:30:13;15.20;99.90
19365;DHT22;9818;48.382;10.850;2022-08-16T04:32:43;15.20;99.90
19365;DHT22;9818;48.382;10.850;2022-08-16T04:35:12;15.30;99.90
19365;DHT22;9818;48.382;10.850;2022-08-16T04:37:41;16.00;99.90
19365;DHT22;9818;48.382;10.850;2022-08-16T04:40:10;16.90;99.90
19365;DHT22;9818;48.382;10.850;2022-08-16T04:42:38;17.30;99.90
19365;DHT22;9818;48.382;10.850;2022-08-16T04:45:07;18.20;99.90
19365;DHT22;9818;48.382;10.850;2022-08-16T04:47:40;19.00;99.90
19365;DHT22;9818;48.382;10.850;2022-08-16T04:50:11;19.80;99.90
19365;DHT22;9818;48.382;10.850;2022-08-16T04:52:40;20.60;99.90
19365;DHT22;9818;48.382;10.850;2022-08-16T04:55:09;21.20;99.90
19365;DHT22;9818;48.382;10.850;2022-08-16T04:57:38;22.00;99.90
19365;DHT22;9818;48.382;10.850;2022-08-16T05:00:08;22.30;99.90
19365;DHT22;9818;48.382;10.850;2022-08-16T05:02:41;22.60;99.90
19365;DHT22;9818;48.382;10.850;2022-08-16T05:05:09;22.90;99.90
19365;DHT22;9818;48.382;10.850;2022-08-16T05:07:38;23.30;99.90
19365;DHT22;9818;48.382;10.850;2022-08-16T05:10:07;22.80;99.90
19365;DHT22;9818;48.382;10.850;2022-08-16T05:12:36;23.70;99.90
19365;DHT22;9818;48.382;10.850;2022-08-16T05:15:05;24.60;99.90
19365;DHT22;9818;48.382;10.850;2022-08-16T05:17:34;25.10;99.90
19365;DHT22;9818;48.382;10.850;2022-08-16T05:20:06;25.60;99.90
19365;DHT22;9818;48.382;10.850;2022-08-16T05:22:36;25.90;99.90
19365;DHT22;9818;48.382;10.850;2022-08-16T05:25:05;26.10;99.90
19365;DHT22;9818;48.382;10.850;2022-08-16T05:27:34;26.20;99.90
19365;DHT22;9818;48.382;10.850;2022-08-16T05:30:03;26.30;99.90
19365;DHT22;9818;48.382;10.850;2022-08-16T05:32:32;26.40;99.90
19365;DHT22;9818;48.382;10.850;2022-08-16T05:35:02;26.80;99.90
19365;DHT22;9818;48.382;10.850;2022-08-16T05:37:34;27.20;99.90
19365;DHT22;9818;48.382;10.850;2022-08-16T05:40:04;27.40;99.90
19365;DHT22;9818;48.382;10.850;2022-08-16T05:42:33;27.20;99.90
19365;DHT22;9818;48.382;10.850;2022-08-16T05:45:02;27.70;99.90
19365;DHT22;9818;48.382;10.850;2022-08-16T05:47:31;28.00;99.90
19365;DHT22;9818;48.382;10.850;2022-08-16T05:49:59;28.40;99.90
19365;DHT22;9818;48.382;10.850;2022-08-16T05:52:28;28.20;99.90
19365;DHT22;9818;48.382;10.850;2022-08-16T05:54:59;27.70;99.90
19365;DHT22;9818;48.382;10.850;2022-08-16T05:57:27;27.50;99.90
19365;DHT22;9818;48.382;10.850;2022-08-16T05:59:56;27.20;99.90
19365;DHT22;9818;48.382;10.850;2022-08-16T06:02:26;26.80;99.90
19365;DHT22;9818;48.382;10.850;2022-08-16T06:04:57;27.60;99.90
19365;DHT22;9818;48.382;10.850;2022-08-16T06:07:25;27.60;99.90
19365;DHT22;9818;48.382;10.850;2022-08-16T06:09:54;26.90;99.90
19365;DHT22;9818;48.382;10.850;2022-08-16T06:12:27;27.20;99.90
19365;DHT22;9818;48.382;10.850;2022-08-16T06:14:56;29.60;99.90
19365;DHT22;9818;48.382;10.850;2022-08-16T06:17:26;30.80;99.90
19365;DHT22;9818;48.382;10.850;2022-08-16T06:19:55;30.90;99.90
19365;DHT22;9818;48.382;10.850;2022-08-16T06:22:23;31.70;97.10
19365;DHT22;9818;48.382;10.850;2022-08-16T06:24:51;31.30;99.90
19365;DHT22;9818;48.382;10.850;2022-08-16T06:27:20;32.20;96.40
19365;DHT22;9818;48.382;10.850;2022-08-16T06:29:51;31.50;95.40
19365;DHT22;9818;48.382;10.850;2022-08-16T06:32:19;31.80;93.60
19365;DHT22;9818;48.382;10.850;2022-08-16T06:34:48;32.40;93.30
19365;DHT22;9818;48.382;10.850;2022-08-16T06:37:16;32.80;94.40
19365;DHT22;9818;48.382;10.850;2022-08-16T06:39:45;31.40;99.90
19365;DHT22;9818;48.382;10.850;2022-08-16T06:42:14;31.90;97.60
19365;DHT22;9818;48.382;10.850;2022-08-16T06:44:42;31.80;93.80
19365;DHT22;9818;48.382;10.850;2022-08-16T06:47:14;32.60;94.10
19365;DHT22;9818;48.382;10.850;2022-08-16T06:49:42;33.70;91.70
19365;DHT22;9818;48.382;10.850;2022-08-16T06:52:11;33.70;87.30
19365;DHT22;9818;48.382;10.850;2022-08-16T06:54:39;33.40;80.90
19365;DHT22;9818;48.382;10.850;2022-08-16T06:57:08;34.70;90.60
19365;DHT22;9818;48.382;10.850;2022-08-16T06:59:38;34.40;72.10
19365;DHT22;9818;48.382;10.850;2022-08-16T07:02:06;33.70;87.40
19365;DHT22;9818;48.382;10.850;2022-08-16T07:04:37;33.80;91.80
19365;DHT22;9818;48.382;10.850;2022-08-16T07:07:07;33.00;84.80
19365;DHT22;9818;48.382;10.850;2022-08-16T07:09:35;34.80;85.20
19365;DHT22;9818;48.382;10.850;2022-08-16T07:12:04;36.10;65.40
19365;DHT22;9818;48.382;10.850;2022-08-16T07:14:33;36.30;68.20
19365;DHT22;9818;48.382;10.850;2022-08-16T07:17:02;36.40;60.50
19365;DHT22;9818;48.382;10.850;2022-08-16T07:19:32;37.40;35.40
19365;DHT22;9818;48.382;10.850;2022-08-16T07:22:04;34.80;61.50
19365;DHT22;9818;48.382;10.850;2022-08-16T07:24:32;35.20;57.50
19365;DHT22;9818;48.382;10.850;2022-08-16T07:27:01;36.30;49.60
19365;DHT22;9818;48.382;10.850;2022-08-16T07:29:29;37.30;45.70
19365;DHT22;9818;48.382;10.850;2022-08-16T07:31:58;37.60;32.10
19365;DHT22;9818;48.382;10.850;2022-08-16T07:34:27;38.10;31.10
19365;DHT22;9818;48.382;10.850;2022-08-16T07:36:55;36.50;26.70
19365;DHT22;9818;48.382;10.850;2022-08-16T07:39:29;35.80;30.40
19365;DHT22;9818;48.382;10.850;2022-08-16T07:42:06;35.80;50.50
19365;DHT22;9818;48.382;10.850;2022-08-16T07:44:42;35.30;39.80
19365;DHT22;9818;48.382;10.850;2022-08-16T07:47:17;35.10;31.20
19365;DHT22;9818;48.382;10.850;2022-08-16T07:49:50;33.30;74.30
19365;DHT22;9818;48.382;10.850;2022-08-16T07:52:21;36.10;53.30
19365;DHT22;9818;48.382;10.850;2022-08-16T07:54:52;36.10;41.80
19365;DHT22;9818;48.382;10.850;2022-08-16T07:57:21;37.40;35.80
19365;DHT22;9818;48.382;10.850;2022-08-16T07:59:49;38.90;24.30
19365;DHT22;9818;48.382;10.850;2022-08-16T08:02:18;37.40;24.20
19365;DHT22;9818;48.382;10.850;2022-08-16T08:04:47;37.20;28.40
19365;DHT22;9818;48.382;10.850;2022-08-16T08:07:16;37.90;20.20
19365;DHT22;9818;48.382;10.850;2022-08-16T08:09:45;37.60;17.00
19365;DHT22;9818;48.382;10.850;2022-08-16T08:12:16;36.80;18.50
19365;DHT22;9818;48.382;10.850;2022-08-16T08:14:47;33.50;19.60
19365;DHT22;9818;48.382;10.850;2022-08-16T08:17:16;33.60;48.70
19365;DHT22;9818;48.382;10.850;2022-08-16T08:19:45;35.10;36.10
19365;DHT22;9818;48.382;10.850;2022-08-16T08:22:14;35.10;29.20
19365;DHT22;9818;48.382;10.850;2022-08-16T08:24:43;34.20;37.40
19365;DHT22;9818;48.382;10.850;2022-08-16T08:27:12;33.60;34.30
19365;DHT22;9818;48.382;10.850;2022-08-16T08:29:45;33.20;69.10
19365;DHT22;9818;48.382;10.850;2022-08-16T08:32:14;35.30;50.70
19365;DHT22;9818;48.382;10.850;2022-08-16T08:34:45;37.30;31.00
19365;DHT22;9818;48.382;10.850;2022-08-16T08:37:14;37.80;22.70
19365;DHT22;9818;48.382;10.850;2022-08-16T08:39:44;37.70;16.80
19365;DHT22;9818;48.382;10.850;2022-08-16T08:42:13;36.70;15.60
19365;DHT22;9818;48.382;10.850;2022-08-16T08:44:45;37.10;16.40
19365;DHT22;9818;48.382;10.850;2022-08-16T08:47:13;36.40;15.60
19365;DHT22;9818;48.382;10.850;2022-08-16T08:49:43;36.30;21.90
19365;DHT22;9818;48.382;10.850;2022-08-16T08:52:11;35.70;20.80
19365;DHT22;9818;48.382;10.850;2022-08-16T08:54:40;35.40;22.80
19365;DHT22;9818;48.382;10.850;2022-08-16T08:57:09;35.90;25.40
19365;DHT22;9818;48.382;10.850;2022-08-16T08:59:37;36.40;25.30
19365;DHT22;9818;48.382;10.850;2022-08-16T09:02:08;33.50;22.80
19365;DHT22;9818;48.382;10.850;2022-08-16T09:04:39;30.20;74.00
19365;DHT22;9818;48.382;10.850;2022-08-16T09:07:07;29.40;94.10
19365;DHT22;9818;48.382;10.850;2022-08-16T09:09:36;28.20;99.90
19365;DHT22;9818;48.382;10.850;2022-08-16T09:12:05;30.90;93.10
19365;DHT22;9818;48.382;10.850;2022-08-16T09:14:34;34.50;79.20
19365;DHT22;9818;48.382;10.850;2022-08-16T09:17:04;34.40;53.30
19365;DHT22;9818;48.382;10.850;2022-08-16T09:19:35;36.30;45.50
19365;DHT22;9818;48.382;10.850;2022-08-16T09:22:04;34.90;32.50
19365;DHT22;9818;48.382;10.850;2022-08-16T09:24:32;34.90;42.20
19365;DHT22;9818;48.382;10.850;2022-08-16T09:27:02;34.50;50.10
19365;DHT22;9818;48.382;10.850;2022-08-16T09:29:30;37.20;38.00
19365;DHT22;9818;48.382;10.850;2022-08-16T09:31:59;37.80;21.50
19365;DHT22;9818;48.382;10.850;2022-08-16T09:34:27;36.90;20.80
19365;DHT22;9818;48.382;10.850;2022-08-16T09:36:59;37.50;24.20
19365;DHT22;9818;48.382;10.850;2022-08-16T09:39:29;37.60;16.20
19365;DHT22;9818;48.382;10.850;2022-08-16T09:41:58;36.60;18.40
19365;DHT22;9818;48.382;10.850;2022-08-16T09:44:27;35.30;20.80
19365;DHT22;9818;48.382;10.850;2022-08-16T09:46:57;35.50;26.90
19365;DHT22;9818;48.382;10.850;2022-08-16T09:49:27;35.10;20.90
19365;DHT22;9818;48.382;10.850;2022-08-16T09:51:56;35.30;26.60
19365;DHT22;9818;48.382;10.850;2022-08-16T09:54:28;36.60;19.00
19365;DHT22;9818;48.382;10.850;2022-08-16T09:56:56;37.40;20.70
19365;DHT22;9818;48.382;10.850;2022-08-16T09:59:25;36.30;20.50
19365;DHT22;9818;48.382;10.850;2022-08-16T10:01:54;35.80;21.00
19365;DHT22;9818;48.382;10.850;2022-08-16T10:04:23;36.10;23.00
19365;DHT22;9818;48.382;10.850;2022-08-16T10:06:54;36.40;19.50
19365;DHT22;9818;48.382;10.850;2022-08-16T10:09:24;35.70;23.50
19365;DHT22;9818;48.382;10.850;2022-08-16T10:11:56;35.30;25.10
19365;DHT22;9818;48.382;10.850;2022-08-16T10:14:37;35.70;19.50
19365;DHT22;9818;48.382;10.850;2022-08-16T10:17:07;36.20;19.10
19365;DHT22;9818;48.382;10.850;2022-08-16T10:19:35;37.50;16.30
19365;DHT22;9818;48.382;10.850;2022-08-16T10:22:04;38.70;12.20
19365;DHT22;9818;48.382;10.850;2022-08-16T10:24:34;37.90;11.50
19365;DHT22;9818;48.382;10.850;2022-08-16T10:27:05;37.80;10.70
19365;DHT22;9818;48.382;10.850;2022-08-16T10:29:35;38.50;7.50
19365;DHT22;9818;48.382;10.850;2022-08-16T10:32:05;39.10;6.80
19365;DHT22;9818;48.382;10.850;2022-08-16T10:34:33;39.90;3.40
19365;DHT22;9818;48.382;10.850;2022-08-16T10:37:02;38.50;3.40
19365;DHT22;9818;48.382;10.850;2022-08-16T10:39:31;38.30;2.50
19365;DHT22;9818;48.382;10.850;2022-08-16T10:41:59;37.30;4.90
19365;DHT22;9818;48.382;10.850;2022-08-16T10:44:31;38.30;3.10
19365;DHT22;9818;48.382;10.850;2022-08-16T10:46:59;36.90;3.50
19365;DHT22;9818;48.382;10.850;2022-08-16T10:49:28;36.80;4.30
19365;DHT22;9818;48.382;10.850;2022-08-16T10:51:56;37.00;4.50
19365;DHT22;9818;48.382;10.850;2022-08-16T10:54:25;36.90;5.00
19365;DHT22;9818;48.382;10.850;2022-08-16T10:56:53;36.80;4.20
19365;DHT22;9818;48.382;10.850;2022-08-16T10:59:22;36.50;3.60
19365;DHT22;9818;48.382;10.850;2022-08-16T11:01:53;36.70;4.70
19365;DHT22;9818;48.382;10.850;2022-08-16T11:04:22;36.30;4.50
19365;DHT22;9818;48.382;10.850;2022-08-16T11:06:50;35.70;4.50
19365;DHT22;9818;48.382;10.850;2022-08-16T11:09:19;33.90;6.00
19365;DHT22;9818;48.382;10.850;2022-08-16T11:11:47;34.00;8.00
19365;DHT22;9818;48.382;10.850;2022-08-16T11:14:16;33.40;9.50
19365;DHT22;9818;48.382;10.850;2022-08-16T11:16:45;32.90;10.80
19365;DHT22;9818;48.382;10.850;2022-08-16T11:19:16;32.20;11.00
19365;DHT22;9818;48.382;10.850;2022-08-16T11:21:44;31.90;12.40
19365;DHT22;9818;48.382;10.850;2022-08-16T11:24:13;31.80;15.60
19365;DHT22;9818;48.382;10.850;2022-08-16T11:26:41;31.80;17.30
19365;DHT22;9818;48.382;10.850;2022-08-16T11:29:10;31.40;17.50
19365;DHT22;9818;48.382;10.850;2022-08-16T11:31:38;31.40;19.80
19365;DHT22;9818;48.382;10.850;2022-08-16T11:34:07;31.10;21.60
19365;DHT22;9818;48.382;10.850;2022-08-16T11:36:38;31.10;23.20
19365;DHT22;9818;48.382;10.850;2022-08-16T11:39:07;31.50;22.10
19365;DHT22;9818;48.382;10.850;2022-08-16T11:41:35;31.40;22.70
19365;DHT22;9818;48.382;10.850;2022-08-16T11:44:04;31.10;25.50
19365;DHT22;9818;48.382;10.850;2022-08-16T11:46:33;30.80;24.70
19365;DHT22;9818;48.382;10.850;2022-08-16T11:49:03;30.10;32.20
19365;DHT22;9818;48.382;10.850;2022-08-16T11:51:32;30.40;32.70
19365;DHT22;9818;48.382;10.850;2022-08-16T11:54:03;30.50;31.30
19365;DHT22;9818;48.382;10.850;2022-08-16T11:56:32;31.00;29.90
19365;DHT22;9818;48.382;10.850;2022-08-16T11:59:01;31.30;27.70
19365;DHT22;9818;48.382;10.850;2022-08-16T12:01:29;31.10;25.40
19365;DHT22;9818;48.382;10.850;2022-08-16T12:03:58;31.60;26.60
19365;DHT22;9818;48.382;10.850;2022-08-16T12:06:27;31.40;25.80
19365;DHT22;9818;48.382;10.850;2022-08-16T12:08:56;30.90;27.10
19365;DHT22;9818;48.382;10.850;2022-08-16T12:11:28;30.30;31.70
19365;DHT22;9818;48.382;10.850;2022-08-16T12:13:57;30.40;32.50
19365;DHT22;9818;48.382;10.850;2022-08-16T12:16:25;30.50;30.00
19365;DHT22;9818;48.382;10.850;2022-08-16T12:18:54;30.80;29.90
19365;DHT22;9818;48.382;10.850;2022-08-16T12:21:23;30.90;29.00
19365;DHT22;9818;48.382;10.850;2022-08-16T12:23:51;30.30;30.50
19365;DHT22;9818;48.382;10.850;2022-08-16T12:26:20;30.40;32.80
19365;DHT22;9818;48.382;10.850;2022-08-16T12:28:51;30.40;33.60
19365;DHT22;9818;48.382;10.850;2022-08-16T12:31:19;30.70;33.50
19365;DHT22;9818;48.382;10.850;2022-08-16T12:33:48;30.80;30.80
19365;DHT22;9818;48.382;10.850;2022-08-16T12:36:17;30.80;29.00
19365;DHT22;9818;48.382;10.850;2022-08-16T12:38:45;30.80;29.80
19365;DHT22;9818;48.382;10.850;2022-08-16T12:41:14;31.10;30.50
19365;DHT22;9818;48.382;10.850;2022-08-16T12:43:43;31.30;29.10
19365;DHT22;9818;48.382;10.850;2022-08-16T12:46:14;31.20;27.90
19365;DHT22;9818;48.382;10.850;2022-08-16T12:48:43;31.00;29.50
19365;DHT22;9818;48.382;10.850;2022-08-16T12:51:25;30.80;29.50
19365;DHT22;9818;48.382;10.850;2022-08-16T12:53:56;30.60;30.80
19365;DHT22;9818;48.382;10.850;2022-08-16T12:56:27;30.20;31.20
19365;DHT22;9818;48.382;10.850;2022-08-16T12:58:58;30.40;33.30
19365;DHT22;9818;48.382;10.850;2022-08-16T13:01:31;30.90;30.80
19365;DHT22;9818;48.382;10.850;2022-08-16T13:04:01;31.30;29.00
19365;DHT22;9818;48.382;10.850;2022-08-16T13:06:32;30.80;30.20
19365;DHT22;9818;48.382;10.850;2022-08-16T13:09:01;30.40;32.50
19365;DHT22;9818;48.382;10.850;2022-08-16T13:11:46;31.10;29.80
19365;DHT22;9818;48.382;10.850;2022-08-16T13:14:16;31.40;28.40
19365;DHT22;9818;48.382;10.850;2022-08-16T13:16:47;31.20;28.30
19365;DHT22;9818;48.382;10.850;2022-08-16T13:19:16;31.00;27.70
19365;DHT22;9818;48.382;10.850;2022-08-16T13:21:45;31.10;28.30
19365;DHT22;9818;48.382;10.850;2022-08-16T13:24:13;31.10;27.90
19365;DHT22;9818;48.382;10.850;2022-08-16T13:26:41;30.60;28.50
19365;DHT22;9818;48.382;10.850;2022-08-16T13:29:10;30.40;30.00
19365;DHT22;9818;48.382;10.850;2022-08-16T13:31:39;30.70;29.30
19365;DHT22;9818;48.382;10.850;2022-08-16T13:34:10;30.70;29.30
19365;DHT22;9818;48.382;10.850;2022-08-16T13:36:40;30.80;29.70
19365;DHT22;9818;48.382;10.850;2022-08-16T13:39:08;31.00;28.50
19365;DHT22;9818;48.382;10.850;2022-08-16T13:41:37;31.00;28.60
19365;DHT22;9818;48.382;10.850;2022-08-16T13:44:05;31.10;26.60
19365;DHT22;9818;48.382;10.850;2022-08-16T13:46:34;30.70;28.60
19365;DHT22;9818;48.382;10.850;2022-08-16T13:49:03;30.90;29.10
19365;DHT22;9818;48.382;10.850;2022-08-16T13:51:34;31.10;27.40
19365;DHT22;9818;48.382;10.850;2022-08-16T13:54:04;31.10;27.60
19365;DHT22;9818;48.382;10.850;2022-08-16T13:56:33;31.20;27.40
19365;DHT22;9818;48.382;10.850;2022-08-16T13:59:03;31.30;27.90
19365;DHT22;9818;48.382;10.850;2022-08-16T14:01:31;31.40;27.30
19365;DHT22;9818;48.382;10.850;2022-08-16T14:04:00;31.70;25.00
19365;DHT22;9818;48.382;10.850;2022-08-16T14:06:28;31.90;25.70
19365;DHT22;9818;48.382;10.850;2022-08-16T14:08:59;31.50;25.60
19365;DHT22;9818;48.382;10.850;2022-08-16T14:11:28;31.40;24.00
19365;DHT22;9818;48.382;10.850;2022-08-16T14:13:56;31.70;23.40
19365;DHT22;9818;48.382;10.850;2022-08-16T14:16:26;31.40;23.00
19365;DHT22;9818;48.382;10.850;2022-08-16T14:18:56;31.40;22.00
19365;DHT22;9818;48.382;10.850;2022-08-16T14:21:24;30.20;27.20
19365;DHT22;9818;48.382;10.850;2022-08-16T14:23:54;31.10;27.50
19365;DHT22;9818;48.382;10.850;2022-08-16T14:26:25;30.70;26.90
19365;DHT22;9818;48.382;10.850;2022-08-16T14:28:53;29.90;31.60
19365;DHT22;9818;48.382;10.850;2022-08-16T14:31:22;30.10;32.10
19365;DHT22;9818;48.382;10.850;2022-08-16T14:33:52;29.90;32.10
19365;DHT22;9818;48.382;10.850;2022-08-16T14:36:20;30.20;30.60
19365;DHT22;9818;48.382;10.850;2022-08-16T14:38:49;30.40;31.60
19365;DHT22;9818;48.382;10.850;2022-08-16T14:41:17;30.70;30.40
19365;DHT22;9818;48.382;10.850;2022-08-16T14:43:49;31.10;28.80
19365;DHT22;9818;48.382;10.850;2022-08-16T14:46:17;31.30;27.60
19365;DHT22;9818;48.382;10.850;2022-08-16T14:48:46;31.20;26.40
19365;DHT22;9818;48.382;10.850;2022-08-16T14:51:14;31.40;25.60
19365;DHT22;9818;48.382;10.850;2022-08-16T14:53:44;31.40;25.90
19365;DHT22;9818;48.382;10.850;2022-08-16T14:56:13;31.70;26.30
19365;DHT22;9818;48.382;10.850;2022-08-16T14:58:41;31.90;24.30
19365;DHT22;9818;48.382;10.850;2022-08-16T15:01:12;31.80;23.70
19365;DHT22;9818;48.382;10.850;2022-08-16T15:03:41;31.50;24.50
19365;DHT22;9818;48.382;10.850;2022-08-16T15:06:10;31.70;24.30
19365;DHT22;9818;48.382;10.850;2022-08-16T15:08:38;31.40;24.30
19365;DHT22;9818;48.382;10.850;2022-08-16T15:11:08;31.40;24.60
19365;DHT22;9818;48.382;10.850;2022-08-16T15:13:36;31.30;23.60
19365;DHT22;9818;48.382;10.850;2022-08-16T15:16:05;30.50;25.00
19365;DHT22;9818;48.382;10.850;2022-08-16T15:18:37;30.30;26.70
19365;DHT22;9818;48.382;10.850;2022-08-16T15:21:05;30.30;27.90
19365;DHT22;9818;48.382;10.850;2022-08-16T15:23:34;30.50;27.50
19365;DHT22;9818;48.382;10.850;2022-08-16T15:26:03;30.40;27.40
19365;DHT22;9818;48.382;10.850;2022-08-16T15:28:32;30.40;27.90
19365;DHT22;9818;48.382;10.850;2022-08-16T15:31:02;30.10;29.20
19365;DHT22;9818;48.382;10.850;2022-08-16T15:33:32;30.20;29.10
19365;DHT22;9818;48.382;10.850;2022-08-16T15:36:03;30.20;29.30
19365;DHT22;9818;48.382;10.850;2022-08-16T15:38:32;30.60;29.60
19365;DHT22;9818;48.382;10.850;2022-08-16T15:41:01;30.70;29.30
19365;DHT22;9818;48.382;10.850;2022-08-16T15:43:30;30.60;29.20
19365;DHT22;9818;48.382;10.850;2022-08-16T15:46:00;30.30;29.90
19365;DHT22;9818;48.382;10.850;2022-08-16T15:48:41;30.20;32.70
19365;DHT22;9818;48.382;10.850;2022-08-16T15:51:13;30.30;32.10
19365;DHT22;9818;48.382;10.850;2022-08-16T15:53:41;30.20;32.10
19365;DHT22;9818;48.382;10.850;2022-08-16T15:56:10;30.20;33.10
19365;DHT22;9818;48.382;10.850;2022-08-16T15:58:39;30.10;33.00
19365;DHT22;9818;48.382;10.850;2022-08-16T16:01:08;30.20;32.50